Decoded Metar for KCLK (CLINTON in OK, USA) (IATA:CLK) | Meteo·Mobile Aviation Weather
aviador You're here:

KCLK Decoded Metar

CLINTON in OK, USA
Report Time2018-10-17 04:15:00
UTC Time2018-10-17 05:21:21
Flight Rules vfr VFR
WindCalm
Visibility9999 m
Phenomena:N/A
Clouds:N/A
Expected CloudBase > 1,200 ft AGL from Temp-Dew spread
CeilingNone
Temp08°C (ISA -4)
Dew Point05°C (82% RH)
AAT6.9°C
QNH1027 hPa
Density Alt814 ft
Elevation1,614 ft
Report Wrong Elevation
Raw Report
KCLK 170415Z AUTO 00000KT 10SM CLR 08/05 A3034 RMK AO2=

Extra information for KCLK:More info

Metar Taf Metar & Taf Last 4 Metars F.Rules Stats Wind Profile Meteogram Temp Stats Airport Information Weather charts Add Link Nearby VenuesMetar ALERT Operation Metar Decoded Social comments

AIRNAV info for KCLK